sensor_id;sensor_type;location;lat;lon;timestamp;temperature;humidity
15609;DHT22;64278;45.642;13.756;2023-03-19T00:01:22;22.30;54.10
15609;DHT22;64278;45.642;13.756;2023-03-19T00:03:48;22.30;54.10
15609;DHT22;64278;45.642;13.756;2023-03-19T00:06:13;22.30;54.00
15609;DHT22;64278;45.642;13.756;2023-03-19T00:08:39;22.30;54.00
15609;DHT22;64278;45.642;13.756;2023-03-19T00:11:11;22.30;53.90
15609;DHT22;64278;45.642;13.756;2023-03-19T00:13:37;22.30;53.90
15609;DHT22;64278;45.642;13.756;2023-03-19T00:16:03;22.30;53.90
15609;DHT22;64278;45.642;13.756;2023-03-19T00:18:29;22.20;53.90
15609;DHT22;64278;45.642;13.756;2023-03-19T00:20:55;22.30;53.90
15609;DHT22;64278;45.642;13.756;2023-03-19T00:23:21;22.20;53.80
15609;DHT22;64278;45.642;13.756;2023-03-19T00:25:47;22.20;53.80
15609;DHT22;64278;45.642;13.756;2023-03-19T00:28:13;22.20;53.80
15609;DHT22;64278;45.642;13.756;2023-03-19T00:30:38;22.20;53.80
15609;DHT22;64278;45.642;13.756;2023-03-19T00:33:04;22.20;53.80
15609;DHT22;64278;45.642;13.756;2023-03-19T00:35:30;22.20;53.70
15609;DHT22;64278;45.642;13.756;2023-03-19T00:37:55;22.20;53.70
15609;DHT22;64278;45.642;13.756;2023-03-19T00:40:22;22.20;53.50
15609;DHT22;64278;45.642;13.756;2023-03-19T00:42:47;22.10;53.40
15609;DHT22;64278;45.642;13.756;2023-03-19T00:45:13;22.10;53.40
15609;DHT22;64278;45.642;13.756;2023-03-19T00:47:39;22.20;53.40
15609;DHT22;64278;45.642;13.756;2023-03-19T00:50:05;22.10;53.40
15609;DHT22;64278;45.642;13.756;2023-03-19T00:52:31;22.20;53.40
15609;DHT22;64278;45.642;13.756;2023-03-19T00:54:57;22.10;53.30
15609;DHT22;64278;45.642;13.756;2023-03-19T00:57:23;22.10;53.30
15609;DHT22;64278;45.642;13.756;2023-03-19T00:59:48;22.10;53.30
15609;DHT22;64278;45.642;13.756;2023-03-19T01:02:14;22.10;53.30
15609;DHT22;64278;45.642;13.756;2023-03-19T01:04:40;22.10;53.30
15609;DHT22;64278;45.642;13.756;2023-03-19T01:07:06;22.10;53.30
15609;DHT22;64278;45.642;13.756;2023-03-19T01:09:31;22.10;53.30
15609;DHT22;64278;45.642;13.756;2023-03-19T01:11:58;22.10;53.30
15609;DHT22;64278;45.642;13.756;2023-03-19T01:14:24;22.10;53.20
15609;DHT22;64278;45.642;13.756;2023-03-19T01:16:49;22.10;53.20
15609;DHT22;64278;45.642;13.756;2023-03-19T01:19:15;22.10;53.80
15609;DHT22;64278;45.642;13.756;2023-03-19T01:21:41;22.10;53.20
15609;DHT22;64278;45.642;13.756;2023-03-19T01:24:11;22.10;53.20
15609;DHT22;64278;45.642;13.756;2023-03-19T01:26:37;22.00;53.10
15609;DHT22;64278;45.642;13.756;2023-03-19T01:29:03;22.00;53.10
15609;DHT22;64278;45.642;13.756;2023-03-19T01:31:29;22.00;53.10
15609;DHT22;64278;45.642;13.756;2023-03-19T01:33:54;22.00;53.10
15609;DHT22;64278;45.642;13.756;2023-03-19T01:36:20;22.00;53.10
15609;DHT22;64278;45.642;13.756;2023-03-19T01:38:46;22.00;53.10
15609;DHT22;64278;45.642;13.756;2023-03-19T01:41:12;22.00;53.10
15609;DHT22;64278;45.642;13.756;2023-03-19T01:43:38;22.00;53.10
15609;DHT22;64278;45.642;13.756;2023-03-19T01:46:07;22.00;53.10
15609;DHT22;64278;45.642;13.756;2023-03-19T01:48:38;22.00;53.10
15609;DHT22;64278;45.642;13.756;2023-03-19T01:51:09;22.00;53.00
15609;DHT22;64278;45.642;13.756;2023-03-19T01:53:37;22.00;53.00
15609;DHT22;64278;45.642;13.756;2023-03-19T01:56:08;22.00;53.00
15609;DHT22;64278;45.642;13.756;2023-03-19T01:58:34;21.90;52.90
15609;DHT22;64278;45.642;13.756;2023-03-19T02:01:00;22.00;52.90
15609;DHT22;64278;45.642;13.756;2023-03-19T02:03:27;21.90;52.90
15609;DHT22;64278;45.642;13.756;2023-03-19T02:05:54;21.90;52.90
15609;DHT22;64278;45.642;13.756;2023-03-19T02:08:21;21.90;52.80
15609;DHT22;64278;45.642;13.756;2023-03-19T02:10:49;21.90;52.80
15609;DHT22;64278;45.642;13.756;2023-03-19T02:13:16;21.90;52.80
15609;DHT22;64278;45.642;13.756;2023-03-19T02:15:42;21.90;52.80
15609;DHT22;64278;45.642;13.756;2023-03-19T02:18:08;21.90;52.80
15609;DHT22;64278;45.642;13.756;2023-03-19T02:23:14;21.90;52.80
15609;DHT22;64278;45.642;13.756;2023-03-19T02:25:52;21.90;52.80
15609;DHT22;64278;45.642;13.756;2023-03-19T02:28:20;21.90;52.80
15609;DHT22;64278;45.642;13.756;2023-03-19T02:30:46;21.90;52.80
15609;DHT22;64278;45.642;13.756;2023-03-19T02:33:15;21.80;52.60
15609;DHT22;64278;45.642;13.756;2023-03-19T02:35:44;21.90;52.70
15609;DHT22;64278;45.642;13.756;2023-03-19T02:38:12;21.90;52.70
15609;DHT22;64278;45.642;13.756;2023-03-19T02:40:44;21.90;52.80
15609;DHT22;64278;45.642;13.756;2023-03-19T02:43:11;21.80;52.70
15609;DHT22;64278;45.642;13.756;2023-03-19T02:45:37;21.80;52.70
15609;DHT22;64278;45.642;13.756;2023-03-19T02:48:03;21.80;52.70
15609;DHT22;64278;45.642;13.756;2023-03-19T02:50:29;21.80;52.60
15609;DHT22;64278;45.642;13.756;2023-03-19T02:52:55;21.80;52.70
15609;DHT22;64278;45.642;13.756;2023-03-19T02:55:21;21.80;52.60
15609;DHT22;64278;45.642;13.756;2023-03-19T02:57:47;21.80;52.70
15609;DHT22;64278;45.642;13.756;2023-03-19T03:00:13;21.80;52.60
15609;DHT22;64278;45.642;13.756;2023-03-19T03:02:39;21.80;52.60
15609;DHT22;64278;45.642;13.756;2023-03-19T03:05:05;21.80;52.60
15609;DHT22;64278;45.642;13.756;2023-03-19T03:07:31;21.80;52.60
15609;DHT22;64278;45.642;13.756;2023-03-19T03:09:57;21.80;52.60
15609;DHT22;64278;45.642;13.756;2023-03-19T03:12:23;21.80;52.60
15609;DHT22;64278;45.642;13.756;2023-03-19T03:14:49;21.80;52.60
15609;DHT22;64278;45.642;13.756;2023-03-19T03:17:16;21.80;52.60
15609;DHT22;64278;45.642;13.756;2023-03-19T03:19:42;21.80;52.60
15609;DHT22;64278;45.642;13.756;2023-03-19T03:22:07;21.70;52.50
15609;DHT22;64278;45.642;13.756;2023-03-19T03:24:33;21.80;52.60
15609;DHT22;64278;45.642;13.756;2023-03-19T03:26:59;21.80;52.60
15609;DHT22;64278;45.642;13.756;2023-03-19T03:29:25;21.70;52.50
15609;DHT22;64278;45.642;13.756;2023-03-19T03:31:50;21.80;52.50
15609;DHT22;64278;45.642;13.756;2023-03-19T03:34:17;21.70;52.50
15609;DHT22;64278;45.642;13.756;2023-03-19T03:36:42;21.80;52.60
15609;DHT22;64278;45.642;13.756;2023-03-19T03:39:09;21.70;52.50
15609;DHT22;64278;45.642;13.756;2023-03-19T03:41:34;21.70;52.50
15609;DHT22;64278;45.642;13.756;2023-03-19T03:44:00;21.70;52.50
15609;DHT22;64278;45.642;13.756;2023-03-19T03:46:26;21.70;52.50
15609;DHT22;64278;45.642;13.756;2023-03-19T03:48:52;21.70;52.50
15609;DHT22;64278;45.642;13.756;2023-03-19T03:51:18;21.70;52.40
15609;DHT22;64278;45.642;13.756;2023-03-19T03:53:43;21.70;52.40
15609;DHT22;64278;45.642;13.756;2023-03-19T03:56:09;21.70;52.40
15609;DHT22;64278;45.642;13.756;2023-03-19T03:58:35;21.70;52.40
15609;DHT22;64278;45.642;13.756;2023-03-19T04:01:02;21.70;52.50
15609;DHT22;64278;45.642;13.756;2023-03-19T04:03:27;21.70;52.50
15609;DHT22;64278;45.642;13.756;2023-03-19T04:05:53;21.70;52.40
15609;DHT22;64278;45.642;13.756;2023-03-19T04:08:19;21.70;52.40
15609;DHT22;64278;45.642;13.756;2023-03-19T04:10:45;21.70;52.40
15609;DHT22;64278;45.642;13.756;2023-03-19T04:13:11;21.70;52.50
15609;DHT22;64278;45.642;13.756;2023-03-19T04:15:41;21.70;52.40
15609;DHT22;64278;45.642;13.756;2023-03-19T04:18:07;21.70;52.50
15609;DHT22;64278;45.642;13.756;2023-03-19T04:20:32;21.70;52.50
15609;DHT22;64278;45.642;13.756;2023-03-19T04:22:58;21.60;52.50
15609;DHT22;64278;45.642;13.756;2023-03-19T04:25:24;21.60;52.40
15609;DHT22;64278;45.642;13.756;2023-03-19T04:27:50;21.60;52.40
15609;DHT22;64278;45.642;13.756;2023-03-19T04:30:17;21.60;52.50
15609;DHT22;64278;45.642;13.756;2023-03-19T04:32:43;21.60;52.40
15609;DHT22;64278;45.642;13.756;2023-03-19T04:35:09;21.60;52.40
15609;DHT22;64278;45.642;13.756;2023-03-19T04:37:34;21.60;52.40
15609;DHT22;64278;45.642;13.756;2023-03-19T04:40:00;21.60;52.50
15609;DHT22;64278;45.642;13.756;2023-03-19T04:42:26;21.60;52.40
15609;DHT22;64278;45.642;13.756;2023-03-19T04:44:52;21.60;52.40
15609;DHT22;64278;45.642;13.756;2023-03-19T04:47:17;21.60;52.50
15609;DHT22;64278;45.642;13.756;2023-03-19T04:49:43;21.60;52.40
15609;DHT22;64278;45.642;13.756;2023-03-19T04:52:09;21.60;52.40
15609;DHT22;64278;45.642;13.756;2023-03-19T04:54:35;21.60;52.40
15609;DHT22;64278;45.642;13.756;2023-03-19T04:57:00;21.60;52.40
15609;DHT22;64278;45.642;13.756;2023-03-19T04:59:26;21.60;52.40
15609;DHT22;64278;45.642;13.756;2023-03-19T05:01:52;21.60;52.40
15609;DHT22;64278;45.642;13.756;2023-03-19T05:04:17;21.60;52.40
15609;DHT22;64278;45.642;13.756;2023-03-19T05:06:43;21.60;52.50
15609;DHT22;64278;45.642;13.756;2023-03-19T05:09:09;21.60;52.40
15609;DHT22;64278;45.642;13.756;2023-03-19T05:11:35;21.60;52.30
15609;DHT22;64278;45.642;13.756;2023-03-19T05:14:00;21.60;52.30
15609;DHT22;64278;45.642;13.756;2023-03-19T05:16:26;21.50;52.30
15609;DHT22;64278;45.642;13.756;2023-03-19T05:18:52;21.50;52.20
15609;DHT22;64278;45.642;13.756;2023-03-19T05:21:18;21.50;52.20
15609;DHT22;64278;45.642;13.756;2023-03-19T05:23:43;21.50;52.20
15609;DHT22;64278;45.642;13.756;2023-03-19T05:26:09;21.50;52.20
15609;DHT22;64278;45.642;13.756;2023-03-19T05:28:36;21.50;52.20
15609;DHT22;64278;45.642;13.756;2023-03-19T05:31:03;21.50;52.20
15609;DHT22;64278;45.642;13.756;2023-03-19T05:33:29;21.50;52.20
15609;DHT22;64278;45.642;13.756;2023-03-19T05:35:55;21.50;52.20
15609;DHT22;64278;45.642;13.756;2023-03-19T05:38:21;21.50;52.20
15609;DHT22;64278;45.642;13.756;2023-03-19T05:40:47;21.50;52.20
15609;DHT22;64278;45.642;13.756;2023-03-19T05:43:12;21.50;52.20
15609;DHT22;64278;45.642;13.756;2023-03-19T05:45:38;21.50;52.20
15609;DHT22;64278;45.642;13.756;2023-03-19T05:48:04;21.50;52.20
15609;DHT22;64278;45.642;13.756;2023-03-19T05:50:31;21.50;52.20
15609;DHT22;64278;45.642;13.756;2023-03-19T05:52:58;21.50;52.20
15609;DHT22;64278;45.642;13.756;2023-03-19T05:55:24;21.50;52.20
15609;DHT22;64278;45.642;13.756;2023-03-19T05:57:50;21.50;52.80
15609;DHT22;64278;45.642;13.756;2023-03-19T06:00:16;21.50;52.20
15609;DHT22;64278;45.642;13.756;2023-03-19T06:02:43;21.50;52.20
15609;DHT22;64278;45.642;13.756;2023-03-19T06:05:09;21.50;52.20
15609;DHT22;64278;45.642;13.756;2023-03-19T06:07:35;21.50;52.20
15609;DHT22;64278;45.642;13.756;2023-03-19T06:10:01;21.50;52.10
15609;DHT22;64278;45.642;13.756;2023-03-19T06:12:27;21.50;52.10
15609;DHT22;64278;45.642;13.756;2023-03-19T06:14:53;21.50;52.20
15609;DHT22;64278;45.642;13.756;2023-03-19T06:17:19;21.50;52.10
15609;DHT22;64278;45.642;13.756;2023-03-19T06:19:44;21.50;52.10
15609;DHT22;64278;45.642;13.756;2023-03-19T06:22:10;21.50;52.10
15609;DHT22;64278;45.642;13.756;2023-03-19T06:24:36;21.50;52.10
15609;DHT22;64278;45.642;13.756;2023-03-19T06:27:02;21.50;52.10
15609;DHT22;64278;45.642;13.756;2023-03-19T06:29:28;21.40;52.10
15609;DHT22;64278;45.642;13.756;2023-03-19T06:31:53;21.40;52.10
15609;DHT22;64278;45.642;13.756;2023-03-19T06:34:19;21.40;52.10
15609;DHT22;64278;45.642;13.756;2023-03-19T06:36:45;21.40;52.10
15609;DHT22;64278;45.642;13.756;2023-03-19T06:39:11;21.40;52.10
15609;DHT22;64278;45.642;13.756;2023-03-19T06:41:37;21.40;52.10
15609;DHT22;64278;45.642;13.756;2023-03-19T06:44:03;21.40;52.10
15609;DHT22;64278;45.642;13.756;2023-03-19T06:46:29;21.40;52.10
15609;DHT22;64278;45.642;13.756;2023-03-19T06:48:56;21.40;52.20
15609;DHT22;64278;45.642;13.756;2023-03-19T06:51:22;21.40;52.10
15609;DHT22;64278;45.642;13.756;2023-03-19T06:53:48;21.40;52.10
15609;DHT22;64278;45.642;13.756;2023-03-19T06:56:13;21.40;52.10
15609;DHT22;64278;45.642;13.756;2023-03-19T06:58:40;21.40;52.10
15609;DHT22;64278;45.642;13.756;2023-03-19T07:01:05;21.40;52.10
15609;DHT22;64278;45.642;13.756;2023-03-19T07:03:31;21.40;52.10
15609;DHT22;64278;45.642;13.756;2023-03-19T07:05:57;21.40;52.00
15609;DHT22;64278;45.642;13.756;2023-03-19T07:08:22;21.40;52.10
15609;DHT22;64278;45.642;13.756;2023-03-19T07:10:52;21.40;51.90
15609;DHT22;64278;45.642;13.756;2023-03-19T07:13:17;21.40;51.90
15609;DHT22;64278;45.642;13.756;2023-03-19T07:15:43;21.40;52.00
15609;DHT22;64278;45.642;13.756;2023-03-19T07:18:09;21.40;51.90
15609;DHT22;64278;45.642;13.756;2023-03-19T07:20:34;21.40;51.90
15609;DHT22;64278;45.642;13.756;2023-03-19T07:23:00;21.40;52.00
15609;DHT22;64278;45.642;13.756;2023-03-19T07:25:26;21.40;51.90
15609;DHT22;64278;45.642;13.756;2023-03-19T07:27:51;21.40;52.00
15609;DHT22;64278;45.642;13.756;2023-03-19T07:30:17;21.40;52.00
15609;DHT22;64278;45.642;13.756;2023-03-19T07:32:43;21.40;51.30
15609;DHT22;64278;45.642;13.756;2023-03-19T07:35:09;21.30;49.00
15609;DHT22;64278;45.642;13.756;2023-03-19T07:37:35;21.20;46.50
15609;DHT22;64278;45.642;13.756;2023-03-19T07:40:01;21.10;46.20
15609;DHT22;64278;45.642;13.756;2023-03-19T07:42:27;20.90;45.10
15609;DHT22;64278;45.642;13.756;2023-03-19T07:44:53;20.80;44.90
15609;DHT22;64278;45.642;13.756;2023-03-19T07:47:19;20.50;44.50
15609;DHT22;64278;45.642;13.756;2023-03-19T07:49:45;20.40;45.00
15609;DHT22;64278;45.642;13.756;2023-03-19T07:52:10;20.30;44.70
15609;DHT22;64278;45.642;13.756;2023-03-19T07:54:36;20.00;44.90
15609;DHT22;64278;45.642;13.756;2023-03-19T07:57:01;20.00;45.80
15609;DHT22;64278;45.642;13.756;2023-03-19T07:59:27;19.90;45.50
15609;DHT22;64278;45.642;13.756;2023-03-19T08:01:53;19.70;45.00
15609;DHT22;64278;45.642;13.756;2023-03-19T08:04:18;19.40;45.50
15609;DHT22;64278;45.642;13.756;2023-03-19T08:06:44;19.20;46.20
15609;DHT22;64278;45.642;13.756;2023-03-19T08:09:10;19.10;46.40
15609;DHT22;64278;45.642;13.756;2023-03-19T08:11:36;19.00;46.10
15609;DHT22;64278;45.642;13.756;2023-03-19T08:14:02;18.80;46.00
15609;DHT22;64278;45.642;13.756;2023-03-19T08:16:27;18.60;46.50
15609;DHT22;64278;45.642;13.756;2023-03-19T08:18:53;18.30;46.50
15609;DHT22;64278;45.642;13.756;2023-03-19T08:21:19;18.20;47.30
15609;DHT22;64278;45.642;13.756;2023-03-19T08:23:44;18.50;50.00
15609;DHT22;64278;45.642;13.756;2023-03-19T08:26:10;18.80;49.80
15609;DHT22;64278;45.642;13.756;2023-03-19T08:28:36;19.10;49.30
15609;DHT22;64278;45.642;13.756;2023-03-19T08:31:10;19.40;48.80
15609;DHT22;64278;45.642;13.756;2023-03-19T08:33:36;19.60;48.50
15609;DHT22;64278;45.642;13.756;2023-03-19T08:36:10;19.80;48.20
15609;DHT22;64278;45.642;13.756;2023-03-19T08:38:37;20.00;48.10
15609;DHT22;64278;45.642;13.756;2023-03-19T08:41:03;20.10;48.00
15609;DHT22;64278;45.642;13.756;2023-03-19T08:43:30;20.20;47.90
15609;DHT22;64278;45.642;13.756;2023-03-19T08:45:57;20.30;47.90
15609;DHT22;64278;45.642;13.756;2023-03-19T08:48:22;20.40;47.90
15609;DHT22;64278;45.642;13.756;2023-03-19T08:50:59;20.50;48.00
15609;DHT22;64278;45.642;13.756;2023-03-19T08:53:26;20.50;48.00
15609;DHT22;64278;45.642;13.756;2023-03-19T08:55:59;20.50;48.10
15609;DHT22;64278;45.642;13.756;2023-03-19T08:58:26;20.50;46.20
15609;DHT22;64278;45.642;13.756;2023-03-19T09:00:53;20.50;46.80
15609;DHT22;64278;45.642;13.756;2023-03-19T09:03:19;20.50;46.60
15609;DHT22;64278;45.642;13.756;2023-03-19T09:05:46;20.40;46.10
15609;DHT22;64278;45.642;13.756;2023-03-19T09:08:12;20.40;45.80
15609;DHT22;64278;45.642;13.756;2023-03-19T09:10:38;20.40;45.60
15609;DHT22;64278;45.642;13.756;2023-03-19T09:13:05;20.40;45.30
15609;DHT22;64278;45.642;13.756;2023-03-19T09:15:30;20.30;45.10
15609;DHT22;64278;45.642;13.756;2023-03-19T09:17:56;20.30;44.50
15609;DHT22;64278;45.642;13.756;2023-03-19T09:20:22;20.30;44.20
15609;DHT22;64278;45.642;13.756;2023-03-19T09:22:48;20.20;41.20
15609;DHT22;64278;45.642;13.756;2023-03-19T09:25:13;20.00;39.50
15609;DHT22;64278;45.642;13.756;2023-03-19T09:27:39;19.80;38.90
15609;DHT22;64278;45.642;13.756;2023-03-19T09:30:06;19.60;38.90
15609;DHT22;64278;45.642;13.756;2023-03-19T09:32:34;19.50;38.80
15609;DHT22;64278;45.642;13.756;2023-03-19T09:35:00;19.40;39.40
15609;DHT22;64278;45.642;13.756;2023-03-19T09:37:26;19.40;39.80
15609;DHT22;64278;45.642;13.756;2023-03-19T09:39:51;19.30;40.30
15609;DHT22;64278;45.642;13.756;2023-03-19T09:44:52;19.20;40.50
15609;DHT22;64278;45.642;13.756;2023-03-19T09:49:58;19.10;40.10
15609;DHT22;64278;45.642;13.756;2023-03-19T09:57:43;19.40;43.20
15609;DHT22;64278;45.642;13.756;2023-03-19T10:05:41;19.70;43.60
15609;DHT22;64278;45.642;13.756;2023-03-19T10:16:20;20.00;44.20
15609;DHT22;64278;45.642;13.756;2023-03-19T10:18:51;20.00;44.30
15609;DHT22;64278;45.642;13.756;2023-03-19T10:24:06;20.10;44.20
15609;DHT22;64278;45.642;13.756;2023-03-19T10:26:35;20.10;44.80
15609;DHT22;64278;45.642;13.756;2023-03-19T10:29:16;20.20;44.40
15609;DHT22;64278;45.642;13.756;2023-03-19T10:31:53;20.20;44.70
15609;DHT22;64278;45.642;13.756;2023-03-19T10:34:40;20.20;44.90
15609;DHT22;64278;45.642;13.756;2023-03-19T10:39:44;20.30;45.20
15609;DHT22;64278;45.642;13.756;2023-03-19T10:42:43;20.30;45.30
15609;DHT22;64278;45.642;13.756;2023-03-19T10:45:25;20.30;45.30
15609;DHT22;64278;45.642;13.756;2023-03-19T10:47:52;20.40;45.40
15609;DHT22;64278;45.642;13.756;2023-03-19T10:50:31;20.40;45.50
15609;DHT22;64278;45.642;13.756;2023-03-19T10:58:19;20.50;46.00
15609;DHT22;64278;45.642;13.756;2023-03-19T11:00:46;20.50;46.10
15609;DHT22;64278;45.642;13.756;2023-03-19T11:03:48;20.50;46.20
15609;DHT22;64278;45.642;13.756;2023-03-19T11:06:25;20.50;46.30
15609;DHT22;64278;45.642;13.756;2023-03-19T11:11:32;20.50;46.40
15609;DHT22;64278;45.642;13.756;2023-03-19T11:14:06;20.50;46.50
15609;DHT22;64278;45.642;13.756;2023-03-19T11:16:55;20.60;46.70
15609;DHT22;64278;45.642;13.756;2023-03-19T11:19:31;20.60;46.70
15609;DHT22;64278;45.642;13.756;2023-03-19T11:22:24;20.60;46.80
15609;DHT22;64278;45.642;13.756;2023-03-19T11:24:51;20.60;47.60
15609;DHT22;64278;45.642;13.756;2023-03-19T11:27:17;20.60;46.90
15609;DHT22;64278;45.642;13.756;2023-03-19T11:29:44;20.60;46.80
15609;DHT22;64278;45.642;13.756;2023-03-19T11:32:28;20.60;47.00
15609;DHT22;64278;45.642;13.756;2023-03-19T11:35:22;20.60;47.00
15609;DHT22;64278;45.642;13.756;2023-03-19T11:37:56;20.60;47.10
15609;DHT22;64278;45.642;13.756;2023-03-19T11:40:40;20.60;47.10
15609;DHT22;64278;45.642;13.756;2023-03-19T11:48:58;20.60;47.30
15609;DHT22;64278;45.642;13.756;2023-03-19T11:51:52;20.60;47.40
15609;DHT22;64278;45.642;13.756;2023-03-19T11:54:40;20.60;47.60
15609;DHT22;64278;45.642;13.756;2023-03-19T12:11:47;20.60;50.40
15609;DHT22;64278;45.642;13.756;2023-03-19T12:14:41;20.60;50.70
15609;DHT22;64278;45.642;13.756;2023-03-19T12:25:37;20.70;50.80
15609;DHT22;64278;45.642;13.756;2023-03-19T12:33:40;20.80;50.60
15609;DHT22;64278;45.642;13.756;2023-03-19T12:36:12;20.80;50.70
15609;DHT22;64278;45.642;13.756;2023-03-19T12:41:20;20.80;50.60
15609;DHT22;64278;45.642;13.756;2023-03-19T12:46:38;20.80;50.60
15609;DHT22;64278;45.642;13.756;2023-03-19T12:49:40;20.80;50.50
15609;DHT22;64278;45.642;13.756;2023-03-19T12:54:46;20.80;50.50
15609;DHT22;64278;45.642;13.756;2023-03-19T13:00:12;20.80;50.40
15609;DHT22;64278;45.642;13.756;2023-03-19T13:06:05;20.80;50.50
15609;DHT22;64278;45.642;13.756;2023-03-19T13:11:16;20.80;50.40
15609;DHT22;64278;45.642;13.756;2023-03-19T13:13:49;20.70;50.40
15609;DHT22;64278;45.642;13.756;2023-03-19T13:21:43;20.70;50.40
15609;DHT22;64278;45.642;13.756;2023-03-19T13:26:47;20.70;50.40
15609;DHT22;64278;45.642;13.756;2023-03-19T13:29:19;20.70;50.40
15609;DHT22;64278;45.642;13.756;2023-03-19T13:31:46;20.70;50.50
15609;DHT22;64278;45.642;13.756;2023-03-19T13:36:41;20.70;50.50
15609;DHT22;64278;45.642;13.756;2023-03-19T13:39:15;20.70;50.50
15609;DHT22;64278;45.642;13.756;2023-03-19T13:44:39;20.70;50.50
15609;DHT22;64278;45.642;13.756;2023-03-19T13:52:45;20.70;50.60
15609;DHT22;64278;45.642;13.756;2023-03-19T13:55:43;20.70;50.60
15609;DHT22;64278;45.642;13.756;2023-03-19T14:01:01;20.60;50.60
15609;DHT22;64278;45.642;13.756;2023-03-19T14:03:30;20.60;50.60
15609;DHT22;64278;45.642;13.756;2023-03-19T14:05:58;20.60;50.70
15609;DHT22;64278;45.642;13.756;2023-03-19T14:08:27;20.60;50.60
15609;DHT22;64278;45.642;13.756;2023-03-19T14:10:56;20.60;50.70
15609;DHT22;64278;45.642;13.756;2023-03-19T14:13:36;20.60;50.70
15609;DHT22;64278;45.642;13.756;2023-03-19T14:16:21;20.60;50.70
15609;DHT22;64278;45.642;13.756;2023-03-19T14:18:47;20.60;50.80
15609;DHT22;64278;45.642;13.756;2023-03-19T14:21:32;20.60;50.80
15609;DHT22;64278;45.642;13.756;2023-03-19T14:26:45;20.60;50.80
15609;DHT22;64278;45.642;13.756;2023-03-19T14:29:13;20.60;50.80
15609;DHT22;64278;45.642;13.756;2023-03-19T14:31:54;20.60;50.90
15609;DHT22;64278;45.642;13.756;2023-03-19T14:39:42;20.60;50.90
15609;DHT22;64278;45.642;13.756;2023-03-19T14:42:19;20.60;50.90
15609;DHT22;64278;45.642;13.756;2023-03-19T14:53:14;20.60;51.00
15609;DHT22;64278;45.642;13.756;2023-03-19T14:55:48;20.60;51.10
15609;DHT22;64278;45.642;13.756;2023-03-19T14:58:14;20.60;51.30
15609;DHT22;64278;45.642;13.756;2023-03-19T15:00:45;20.60;51.50
15609;DHT22;64278;45.642;13.756;2023-03-19T15:03:32;20.60;51.90
15609;DHT22;64278;45.642;13.756;2023-03-19T15:06:02;20.60;52.50
15609;DHT22;64278;45.642;13.756;2023-03-19T15:08:30;20.70;52.80
15609;DHT22;64278;45.642;13.756;2023-03-19T15:19:12;20.70;54.60
15609;DHT22;64278;45.642;13.756;2023-03-19T15:21:39;20.70;54.70
15609;DHT22;64278;45.642;13.756;2023-03-19T15:24:06;20.70;54.80
15609;DHT22;64278;45.642;13.756;2023-03-19T15:26:37;20.70;54.90
15609;DHT22;64278;45.642;13.756;2023-03-19T15:29:03;20.70;54.90
15609;DHT22;64278;45.642;13.756;2023-03-19T15:31:46;20.70;54.90
15609;DHT22;64278;45.642;13.756;2023-03-19T15:36:43;20.70;54.80
15609;DHT22;64278;45.642;13.756;2023-03-19T15:39:10;20.80;54.80
15609;DHT22;64278;45.642;13.756;2023-03-19T15:41:43;20.70;54.70
15609;DHT22;64278;45.642;13.756;2023-03-19T15:44:17;20.80;54.80
15609;DHT22;64278;45.642;13.756;2023-03-19T15:46:44;20.70;54.80
15609;DHT22;64278;45.642;13.756;2023-03-19T15:49:15;20.70;54.70
15609;DHT22;64278;45.642;13.756;2023-03-19T15:51:45;20.70;54.70
15609;DHT22;64278;45.642;13.756;2023-03-19T15:54:16;20.70;54.70
15609;DHT22;64278;45.642;13.756;2023-03-19T15:56:42;20.70;54.70
15609;DHT22;64278;45.642;13.756;2023-03-19T15:59:09;20.70;54.70
15609;DHT22;64278;45.642;13.756;2023-03-19T16:01:35;20.70;54.70
15609;DHT22;64278;45.642;13.756;2023-03-19T16:04:05;20.70;54.60
15609;DHT22;64278;45.642;13.756;2023-03-19T16:06:36;20.70;54.60
15609;DHT22;64278;45.642;13.756;2023-03-19T16:09:38;20.70;54.50
15609;DHT22;64278;45.642;13.756;2023-03-19T16:17:46;20.80;54.30
15609;DHT22;64278;45.642;13.756;2023-03-19T16:20:14;20.80;54.10
15609;DHT22;64278;45.642;13.756;2023-03-19T16:22:40;20.90;54.10
15609;DHT22;64278;45.642;13.756;2023-03-19T16:25:17;21.00;54.00
15609;DHT22;64278;45.642;13.756;2023-03-19T16:27:44;21.10;53.80
15609;DHT22;64278;45.642;13.756;2023-03-19T16:30:25;21.20;53.80
15609;DHT22;64278;45.642;13.756;2023-03-19T16:33:04;21.30;53.60
15609;DHT22;64278;45.642;13.756;2023-03-19T16:35:32;21.30;53.40
15609;DHT22;64278;45.642;13.756;2023-03-19T16:38:11;21.40;53.30
15609;DHT22;64278;45.642;13.756;2023-03-19T16:40:46;21.40;53.20
15609;DHT22;64278;45.642;13.756;2023-03-19T16:43:20;21.40;53.10
15609;DHT22;64278;45.642;13.756;2023-03-19T16:45:51;21.50;53.10
15609;DHT22;64278;45.642;13.756;2023-03-19T16:48:17;21.50;53.00
15609;DHT22;64278;45.642;13.756;2023-03-19T16:50:43;21.60;53.00
15609;DHT22;64278;45.642;13.756;2023-03-19T16:53:14;21.60;53.00
15609;DHT22;64278;45.642;13.756;2023-03-19T16:55:44;21.60;52.90
15609;DHT22;64278;45.642;13.756;2023-03-19T16:58:17;21.70;52.80
15609;DHT22;64278;45.642;13.756;2023-03-19T17:00:45;21.60;52.70
15609;DHT22;64278;45.642;13.756;2023-03-19T17:03:13;21.60;52.60
15609;DHT22;64278;45.642;13.756;2023-03-19T17:05:40;21.60;52.60
15609;DHT22;64278;45.642;13.756;2023-03-19T17:08:05;21.60;52.50
15609;DHT22;64278;45.642;13.756;2023-03-19T17:10:32;21.70;52.60
15609;DHT22;64278;45.642;13.756;2023-03-19T17:12:59;21.70;52.50
15609;DHT22;64278;45.642;13.756;2023-03-19T17:15:27;21.70;52.60
15609;DHT22;64278;45.642;13.756;2023-03-19T17:17:54;21.70;52.50
15609;DHT22;64278;45.642;13.756;2023-03-19T17:20:29;21.70;52.50
15609;DHT22;64278;45.642;13.756;2023-03-19T17:22:56;21.70;52.40
15609;DHT22;64278;45.642;13.756;2023-03-19T17:25:22;21.70;52.40
15609;DHT22;64278;45.642;13.756;2023-03-19T17:27:48;21.80;52.50
15609;DHT22;64278;45.642;13.756;2023-03-19T17:30:14;21.80;52.30
15609;DHT22;64278;45.642;13.756;2023-03-19T17:32:43;21.80;52.30
15609;DHT22;64278;45.642;13.756;2023-03-19T17:35:18;21.80;52.30
15609;DHT22;64278;45.642;13.756;2023-03-19T17:37:45;21.80;52.30
15609;DHT22;64278;45.642;13.756;2023-03-19T17:42:39;21.80;52.20
15609;DHT22;64278;45.642;13.756;2023-03-19T17:45:06;21.80;52.10
15609;DHT22;64278;45.642;13.756;2023-03-19T17:47:32;21.80;52.10
15609;DHT22;64278;45.642;13.756;2023-03-19T17:49:59;21.80;52.00
15609;DHT22;64278;45.642;13.756;2023-03-19T17:52:25;21.80;52.00